sensor_id;sensor_type;location;lat;lon;timestamp;P1;durP1;ratioP1;P2;durP2;ratioP2
12493;SDS011;8260;51.422;6.786;2022-09-19T00:01:11;15.68;;;3.08;;
12493;SDS011;8260;51.422;6.786;2022-09-19T00:03:41;11.57;;;2.95;;
12493;SDS011;8260;51.422;6.786;2022-09-19T00:06:09;12.73;;;3.33;;
12493;SDS011;8260;51.422;6.786;2022-09-19T00:08:39;6.50;;;2.60;;
12493;SDS011;8260;51.422;6.786;2022-09-19T00:11:13;10.10;;;3.22;;
12493;SDS011;8260;51.422;6.786;2022-09-19T00:13:42;9.18;;;2.60;;
12493;SDS011;8260;51.422;6.786;2022-09-19T00:16:17;11.15;;;2.92;;
12493;SDS011;8260;51.422;6.786;2022-09-19T00:18:46;15.15;;;3.10;;
12493;SDS011;8260;51.422;6.786;2022-09-19T00:21:18;10.40;;;3.00;;
12493;SDS011;8260;51.422;6.786;2022-09-19T00:23:46;6.82;;;2.53;;
12493;SDS011;8260;51.422;6.786;2022-09-19T00:26:46;11.35;;;3.22;;
12493;SDS011;8260;51.422;6.786;2022-09-19T00:29:15;6.78;;;2.95;;
12493;SDS011;8260;51.422;6.786;2022-09-19T00:31:44;13.43;;;3.17;;
12493;SDS011;8260;51.422;6.786;2022-09-19T00:34:13;11.48;;;3.35;;
12493;SDS011;8260;51.422;6.786;2022-09-19T00:36:43;8.80;;;3.42;;
12493;SDS011;8260;51.422;6.786;2022-09-19T00:39:12;9.48;;;3.47;;
12493;SDS011;8260;51.422;6.786;2022-09-19T00:41:41;14.38;;;3.58;;
12493;SDS011;8260;51.422;6.786;2022-09-19T00:46:55;9.60;;;3.33;;
12493;SDS011;8260;51.422;6.786;2022-09-19T00:49:26;8.68;;;2.60;;
12493;SDS011;8260;51.422;6.786;2022-09-19T00:51:56;8.40;;;2.78;;
12493;SDS011;8260;51.422;6.786;2022-09-19T00:54:27;14.65;;;2.95;;
12493;SDS011;8260;51.422;6.786;2022-09-19T00:56:56;7.90;;;2.17;;
12493;SDS011;8260;51.422;6.786;2022-09-19T00:59:26;10.52;;;3.00;;
12493;SDS011;8260;51.422;6.786;2022-09-19T01:01:57;9.95;;;2.95;;
12493;SDS011;8260;51.422;6.786;2022-09-19T01:04:28;10.32;;;2.75;;
12493;SDS011;8260;51.422;6.786;2022-09-19T01:07:04;9.82;;;2.83;;
12493;SDS011;8260;51.422;6.786;2022-09-19T01:09:42;10.55;;;3.03;;
12493;SDS011;8260;51.422;6.786;2022-09-19T01:12:21;11.80;;;3.10;;
12493;SDS011;8260;51.422;6.786;2022-09-19T01:14:56;14.02;;;3.00;;
12493;SDS011;8260;51.422;6.786;2022-09-19T01:17:35;12.13;;;3.22;;
12493;SDS011;8260;51.422;6.786;2022-09-19T01:20:18;10.75;;;3.88;;
12493;SDS011;8260;51.422;6.786;2022-09-19T01:22:55;11.77;;;3.17;;
12493;SDS011;8260;51.422;6.786;2022-09-19T01:25:26;13.27;;;3.10;;
12493;SDS011;8260;51.422;6.786;2022-09-19T01:28:13;13.23;;;3.58;;
12493;SDS011;8260;51.422;6.786;2022-09-19T01:30:49;9.50;;;3.10;;
12493;SDS011;8260;51.422;6.786;2022-09-19T01:33:40;12.88;;;3.42;;
12493;SDS011;8260;51.422;6.786;2022-09-19T01:36:09;10.43;;;3.17;;
12493;SDS011;8260;51.422;6.786;2022-09-19T01:38:40;10.48;;;3.08;;
12493;SDS011;8260;51.422;6.786;2022-09-19T01:41:09;8.57;;;2.70;;
12493;SDS011;8260;51.422;6.786;2022-09-19T01:43:40;14.02;;;3.13;;
12493;SDS011;8260;51.422;6.786;2022-09-19T01:46:11;8.77;;;2.80;;
12493;SDS011;8260;51.422;6.786;2022-09-19T01:48:42;10.38;;;4.00;;
12493;SDS011;8260;51.422;6.786;2022-09-19T01:51:18;13.73;;;3.33;;
12493;SDS011;8260;51.422;6.786;2022-09-19T01:53:57;11.05;;;2.47;;
12493;SDS011;8260;51.422;6.786;2022-09-19T01:56:28;9.75;;;2.75;;
12493;SDS011;8260;51.422;6.786;2022-09-19T01:59:01;11.70;;;2.80;;
12493;SDS011;8260;51.422;6.786;2022-09-19T02:01:33;10.10;;;3.35;;
12493;SDS011;8260;51.422;6.786;2022-09-19T02:04:04;8.70;;;3.20;;
12493;SDS011;8260;51.422;6.786;2022-09-19T02:06:35;12.30;;;3.47;;
12493;SDS011;8260;51.422;6.786;2022-09-19T02:09:14;14.40;;;3.05;;
12493;SDS011;8260;51.422;6.786;2022-09-19T02:11:43;10.57;;;3.00;;
12493;SDS011;8260;51.422;6.786;2022-09-19T02:14:17;14.88;;;3.65;;
12493;SDS011;8260;51.422;6.786;2022-09-19T02:16:48;9.70;;;3.17;;
12493;SDS011;8260;51.422;6.786;2022-09-19T02:19:20;15.73;;;2.67;;
12493;SDS011;8260;51.422;6.786;2022-09-19T02:21:53;12.73;;;3.65;;
12493;SDS011;8260;51.422;6.786;2022-09-19T02:24:22;13.50;;;2.85;;
12493;SDS011;8260;51.422;6.786;2022-09-19T02:26:54;11.18;;;2.83;;
12493;SDS011;8260;51.422;6.786;2022-09-19T02:29:25;16.30;;;2.90;;
12493;SDS011;8260;51.422;6.786;2022-09-19T02:31:56;10.45;;;3.28;;
12493;SDS011;8260;51.422;6.786;2022-09-19T02:34:26;8.95;;;2.47;;
12493;SDS011;8260;51.422;6.786;2022-09-19T02:36:55;11.27;;;3.10;;
12493;SDS011;8260;51.422;6.786;2022-09-19T02:39:28;7.70;;;2.72;;
12493;SDS011;8260;51.422;6.786;2022-09-19T02:42:00;12.65;;;2.90;;
12493;SDS011;8260;51.422;6.786;2022-09-19T02:44:32;12.93;;;3.10;;
12493;SDS011;8260;51.422;6.786;2022-09-19T02:47:04;14.77;;;3.35;;
12493;SDS011;8260;51.422;6.786;2022-09-19T02:49:36;8.98;;;2.65;;
12493;SDS011;8260;51.422;6.786;2022-09-19T02:52:07;16.67;;;4.93;;
12493;SDS011;8260;51.422;6.786;2022-09-19T02:54:38;8.77;;;3.45;;
12493;SDS011;8260;51.422;6.786;2022-09-19T02:57:09;8.95;;;2.70;;
12493;SDS011;8260;51.422;6.786;2022-09-19T02:59:41;11.80;;;3.33;;
12493;SDS011;8260;51.422;6.786;2022-09-19T03:02:12;14.98;;;3.10;;
12493;SDS011;8260;51.422;6.786;2022-09-19T03:04:44;13.50;;;3.08;;
12493;SDS011;8260;51.422;6.786;2022-09-19T03:07:14;7.40;;;2.63;;
12493;SDS011;8260;51.422;6.786;2022-09-19T03:09:46;7.88;;;3.47;;
12493;SDS011;8260;51.422;6.786;2022-09-19T03:12:19;10.20;;;3.28;;
12493;SDS011;8260;51.422;6.786;2022-09-19T03:14:50;5.50;;;2.58;;
12493;SDS011;8260;51.422;6.786;2022-09-19T03:17:23;17.08;;;3.63;;
12493;SDS011;8260;51.422;6.786;2022-09-19T03:19:52;12.25;;;3.45;;
12493;SDS011;8260;51.422;6.786;2022-09-19T03:22:21;9.23;;;2.92;;
12493;SDS011;8260;51.422;6.786;2022-09-19T03:24:49;12.07;;;3.03;;
12493;SDS011;8260;51.422;6.786;2022-09-19T03:27:17;9.43;;;2.90;;
12493;SDS011;8260;51.422;6.786;2022-09-19T03:29:46;16.35;;;3.20;;
12493;SDS011;8260;51.422;6.786;2022-09-19T03:32:15;11.07;;;3.25;;
12493;SDS011;8260;51.422;6.786;2022-09-19T03:34:44;9.10;;;2.65;;
12493;SDS011;8260;51.422;6.786;2022-09-19T03:37:12;9.98;;;2.80;;
12493;SDS011;8260;51.422;6.786;2022-09-19T03:39:41;11.07;;;2.63;;
12493;SDS011;8260;51.422;6.786;2022-09-19T03:42:11;9.32;;;3.03;;
12493;SDS011;8260;51.422;6.786;2022-09-19T03:44:40;11.82;;;2.70;;
12493;SDS011;8260;51.422;6.786;2022-09-19T03:47:08;13.88;;;2.78;;
12493;SDS011;8260;51.422;6.786;2022-09-19T03:49:38;13.13;;;2.63;;
12493;SDS011;8260;51.422;6.786;2022-09-19T03:52:06;10.30;;;2.70;;
12493;SDS011;8260;51.422;6.786;2022-09-19T03:54:35;14.25;;;2.92;;
12493;SDS011;8260;51.422;6.786;2022-09-19T03:57:04;11.07;;;2.70;;
12493;SDS011;8260;51.422;6.786;2022-09-19T03:59:33;10.00;;;2.60;;
12493;SDS011;8260;51.422;6.786;2022-09-19T04:02:07;10.70;;;2.88;;
12493;SDS011;8260;51.422;6.786;2022-09-19T04:04:36;15.88;;;2.88;;
12493;SDS011;8260;51.422;6.786;2022-09-19T04:07:06;12.02;;;2.53;;
12493;SDS011;8260;51.422;6.786;2022-09-19T04:09:34;11.38;;;2.47;;
12493;SDS011;8260;51.422;6.786;2022-09-19T04:12:03;8.80;;;2.97;;
12493;SDS011;8260;51.422;6.786;2022-09-19T04:14:32;10.70;;;2.78;;
12493;SDS011;8260;51.422;6.786;2022-09-19T04:17:01;11.05;;;3.38;;
12493;SDS011;8260;51.422;6.786;2022-09-19T04:19:47;11.93;;;3.70;;
12493;SDS011;8260;51.422;6.786;2022-09-19T04:22:19;10.15;;;3.92;;
12493;SDS011;8260;51.422;6.786;2022-09-19T04:24:48;10.93;;;4.00;;
12493;SDS011;8260;51.422;6.786;2022-09-19T04:27:18;15.57;;;5.45;;
12493;SDS011;8260;51.422;6.786;2022-09-19T04:29:47;16.23;;;4.78;;
12493;SDS011;8260;51.422;6.786;2022-09-19T04:32:15;14.32;;;4.85;;
12493;SDS011;8260;51.422;6.786;2022-09-19T04:34:43;20.70;;;5.68;;
12493;SDS011;8260;51.422;6.786;2022-09-19T04:37:13;17.83;;;4.18;;
12493;SDS011;8260;51.422;6.786;2022-09-19T04:39:43;15.27;;;3.97;;
12493;SDS011;8260;51.422;6.786;2022-09-19T04:42:15;18.65;;;3.85;;
12493;SDS011;8260;51.422;6.786;2022-09-19T04:44:43;12.48;;;3.70;;
12493;SDS011;8260;51.422;6.786;2022-09-19T04:47:11;13.27;;;3.63;;
12493;SDS011;8260;51.422;6.786;2022-09-19T04:49:40;16.58;;;3.35;;
12493;SDS011;8260;51.422;6.786;2022-09-19T04:52:10;13.73;;;3.65;;
12493;SDS011;8260;51.422;6.786;2022-09-19T04:54:39;10.18;;;4.25;;
12493;SDS011;8260;51.422;6.786;2022-09-19T04:57:09;12.60;;;3.50;;
12493;SDS011;8260;51.422;6.786;2022-09-19T04:59:37;14.43;;;3.50;;
12493;SDS011;8260;51.422;6.786;2022-09-19T05:02:05;13.68;;;4.05;;
12493;SDS011;8260;51.422;6.786;2022-09-19T05:04:35;12.15;;;4.63;;
12493;SDS011;8260;51.422;6.786;2022-09-19T05:07:04;13.30;;;4.13;;
12493;SDS011;8260;51.422;6.786;2022-09-19T05:09:34;13.82;;;3.95;;
12493;SDS011;8260;51.422;6.786;2022-09-19T05:12:03;11.18;;;4.15;;
12493;SDS011;8260;51.422;6.786;2022-09-19T05:14:36;14.88;;;3.90;;
12493;SDS011;8260;51.422;6.786;2022-09-19T05:17:05;13.20;;;3.67;;
12493;SDS011;8260;51.422;6.786;2022-09-19T05:19:33;8.00;;;2.90;;
12493;SDS011;8260;51.422;6.786;2022-09-19T05:22:02;10.05;;;3.55;;
12493;SDS011;8260;51.422;6.786;2022-09-19T05:24:30;16.20;;;3.97;;
12493;SDS011;8260;51.422;6.786;2022-09-19T05:26:59;12.10;;;3.30;;
12493;SDS011;8260;51.422;6.786;2022-09-19T05:29:28;11.30;;;3.95;;
12493;SDS011;8260;51.422;6.786;2022-09-19T05:31:59;13.00;;;3.38;;
12493;SDS011;8260;51.422;6.786;2022-09-19T05:34:31;18.80;;;3.80;;
12493;SDS011;8260;51.422;6.786;2022-09-19T05:36:59;8.07;;;3.08;;
12493;SDS011;8260;51.422;6.786;2022-09-19T05:39:28;13.55;;;3.60;;
12493;SDS011;8260;51.422;6.786;2022-09-19T05:41:56;16.80;;;3.72;;
12493;SDS011;8260;51.422;6.786;2022-09-19T05:44:25;10.95;;;3.47;;
12493;SDS011;8260;51.422;6.786;2022-09-19T05:46:53;9.77;;;3.50;;
12493;SDS011;8260;51.422;6.786;2022-09-19T05:49:23;10.98;;;3.60;;
12493;SDS011;8260;51.422;6.786;2022-09-19T05:51:52;11.20;;;3.88;;
12493;SDS011;8260;51.422;6.786;2022-09-19T05:54:22;14.48;;;4.10;;
12493;SDS011;8260;51.422;6.786;2022-09-19T05:56:49;10.15;;;3.92;;
12493;SDS011;8260;51.422;6.786;2022-09-19T05:59:18;8.60;;;3.33;;
12493;SDS011;8260;51.422;6.786;2022-09-19T06:01:47;12.32;;;3.35;;
12493;SDS011;8260;51.422;6.786;2022-09-19T06:04:16;8.60;;;3.35;;
12493;SDS011;8260;51.422;6.786;2022-09-19T06:06:46;13.20;;;3.75;;
12493;SDS011;8260;51.422;6.786;2022-09-19T06:09:14;9.57;;;3.10;;
12493;SDS011;8260;51.422;6.786;2022-09-19T06:11:42;16.70;;;3.80;;
12493;SDS011;8260;51.422;6.786;2022-09-19T06:14:11;15.45;;;3.65;;
12493;SDS011;8260;51.422;6.786;2022-09-19T06:16:43;17.10;;;3.95;;
12493;SDS011;8260;51.422;6.786;2022-09-19T06:19:12;11.43;;;4.35;;
12493;SDS011;8260;51.422;6.786;2022-09-19T06:21:40;17.80;;;4.05;;
12493;SDS011;8260;51.422;6.786;2022-09-19T06:24:11;18.90;;;4.47;;
12493;SDS011;8260;51.422;6.786;2022-09-19T06:26:39;15.80;;;3.85;;
12493;SDS011;8260;51.422;6.786;2022-09-19T06:29:08;9.45;;;3.75;;
12493;SDS011;8260;51.422;6.786;2022-09-19T06:31:36;12.13;;;4.18;;
12493;SDS011;8260;51.422;6.786;2022-09-19T06:34:05;16.00;;;4.03;;
12493;SDS011;8260;51.422;6.786;2022-09-19T06:36:33;13.07;;;4.05;;
12493;SDS011;8260;51.422;6.786;2022-09-19T06:39:02;15.82;;;4.45;;
12493;SDS011;8260;51.422;6.786;2022-09-19T06:41:31;11.23;;;3.92;;
12493;SDS011;8260;51.422;6.786;2022-09-19T06:44:01;12.20;;;3.80;;
12493;SDS011;8260;51.422;6.786;2022-09-19T06:46:29;11.13;;;4.05;;
12493;SDS011;8260;51.422;6.786;2022-09-19T06:49:00;11.27;;;3.70;;
12493;SDS011;8260;51.422;6.786;2022-09-19T06:51:29;11.27;;;3.60;;
12493;SDS011;8260;51.422;6.786;2022-09-19T06:53:57;14.77;;;4.03;;
12493;SDS011;8260;51.422;6.786;2022-09-19T06:56:25;11.27;;;4.30;;
12493;SDS011;8260;51.422;6.786;2022-09-19T06:58:55;11.45;;;3.72;;
12493;SDS011;8260;51.422;6.786;2022-09-19T07:01:24;12.55;;;4.13;;
12493;SDS011;8260;51.422;6.786;2022-09-19T07:03:52;15.35;;;4.55;;
12493;SDS011;8260;51.422;6.786;2022-09-19T07:06:20;12.60;;;4.45;;
12493;SDS011;8260;51.422;6.786;2022-09-19T07:08:49;12.10;;;3.72;;
12493;SDS011;8260;51.422;6.786;2022-09-19T07:11:17;13.68;;;3.75;;
12493;SDS011;8260;51.422;6.786;2022-09-19T07:13:51;14.48;;;4.60;;
12493;SDS011;8260;51.422;6.786;2022-09-19T07:16:21;8.00;;;3.22;;
12493;SDS011;8260;51.422;6.786;2022-09-19T07:18:50;14.23;;;4.20;;
12493;SDS011;8260;51.422;6.786;2022-09-19T07:21:18;12.50;;;3.80;;
12493;SDS011;8260;51.422;6.786;2022-09-19T07:23:50;10.35;;;3.97;;
12493;SDS011;8260;51.422;6.786;2022-09-19T07:26:20;10.23;;;3.63;;
12493;SDS011;8260;51.422;6.786;2022-09-19T07:28:49;11.63;;;3.20;;
12493;SDS011;8260;51.422;6.786;2022-09-19T07:31:23;14.85;;;3.40;;
12493;SDS011;8260;51.422;6.786;2022-09-19T07:33:51;14.45;;;3.17;;
12493;SDS011;8260;51.422;6.786;2022-09-19T07:36:20;9.02;;;2.83;;
12493;SDS011;8260;51.422;6.786;2022-09-19T07:38:49;6.60;;;3.00;;
12493;SDS011;8260;51.422;6.786;2022-09-19T07:41:18;9.77;;;2.95;;
12493;SDS011;8260;51.422;6.786;2022-09-19T07:43:47;10.27;;;3.33;;
12493;SDS011;8260;51.422;6.786;2022-09-19T07:46:16;10.27;;;2.72;;
12493;SDS011;8260;51.422;6.786;2022-09-19T07:48:47;8.25;;;2.83;;
12493;SDS011;8260;51.422;6.786;2022-09-19T07:51:15;10.43;;;3.63;;
12493;SDS011;8260;51.422;6.786;2022-09-19T07:53:48;8.85;;;2.85;;
12493;SDS011;8260;51.422;6.786;2022-09-19T07:56:17;10.98;;;2.70;;
12493;SDS011;8260;51.422;6.786;2022-09-19T07:58:45;9.05;;;2.70;;
12493;SDS011;8260;51.422;6.786;2022-09-19T08:01:13;5.85;;;2.58;;
12493;SDS011;8260;51.422;6.786;2022-09-19T08:03:42;8.82;;;2.63;;
12493;SDS011;8260;51.422;6.786;2022-09-19T08:06:14;8.70;;;2.97;;
12493;SDS011;8260;51.422;6.786;2022-09-19T08:08:42;9.65;;;2.78;;
12493;SDS011;8260;51.422;6.786;2022-09-19T08:11:10;12.73;;;3.17;;
12493;SDS011;8260;51.422;6.786;2022-09-19T08:13:39;10.68;;;3.10;;
12493;SDS011;8260;51.422;6.786;2022-09-19T08:16:09;9.98;;;3.20;;
12493;SDS011;8260;51.422;6.786;2022-09-19T08:18:38;9.77;;;2.42;;
12493;SDS011;8260;51.422;6.786;2022-09-19T08:21:07;9.75;;;2.55;;
12493;SDS011;8260;51.422;6.786;2022-09-19T08:23:38;7.60;;;2.63;;
12493;SDS011;8260;51.422;6.786;2022-09-19T08:26:07;10.75;;;2.63;;
12493;SDS011;8260;51.422;6.786;2022-09-19T08:28:36;12.20;;;2.40;;
12493;SDS011;8260;51.422;6.786;2022-09-19T08:31:05;13.05;;;2.67;;
12493;SDS011;8260;51.422;6.786;2022-09-19T08:33:34;9.85;;;2.67;;
12493;SDS011;8260;51.422;6.786;2022-09-19T08:36:02;8.30;;;2.60;;
12493;SDS011;8260;51.422;6.786;2022-09-19T08:38:31;9.00;;;2.25;;
12493;SDS011;8260;51.422;6.786;2022-09-19T08:41:04;9.23;;;2.45;;
12493;SDS011;8260;51.422;6.786;2022-09-19T08:43:37;10.07;;;2.47;;
12493;SDS011;8260;51.422;6.786;2022-09-19T08:46:11;9.93;;;2.45;;
12493;SDS011;8260;51.422;6.786;2022-09-19T08:48:54;7.70;;;2.28;;
12493;SDS011;8260;51.422;6.786;2022-09-19T08:51:25;10.88;;;3.08;;
12493;SDS011;8260;51.422;6.786;2022-09-19T08:53:56;11.70;;;2.50;;
12493;SDS011;8260;51.422;6.786;2022-09-19T08:56:28;6.15;;;2.25;;
12493;SDS011;8260;51.422;6.786;2022-09-19T08:58:58;9.90;;;2.45;;
12493;SDS011;8260;51.422;6.786;2022-09-19T09:01:29;11.50;;;2.30;;
12493;SDS011;8260;51.422;6.786;2022-09-19T09:04:04;9.70;;;2.22;;
12493;SDS011;8260;51.422;6.786;2022-09-19T09:06:40;12.30;;;2.50;;
12493;SDS011;8260;51.422;6.786;2022-09-19T09:09:14;8.57;;;2.97;;
12493;SDS011;8260;51.422;6.786;2022-09-19T09:11:48;11.60;;;2.67;;
12493;SDS011;8260;51.422;6.786;2022-09-19T09:14:23;5.43;;;2.25;;
12493;SDS011;8260;51.422;6.786;2022-09-19T09:17:01;10.90;;;2.47;;
12493;SDS011;8260;51.422;6.786;2022-09-19T09:19:44;9.02;;;2.47;;
12493;SDS011;8260;51.422;6.786;2022-09-19T09:22:17;7.00;;;2.15;;
12493;SDS011;8260;51.422;6.786;2022-09-19T09:24:47;10.57;;;2.42;;
12493;SDS011;8260;51.422;6.786;2022-09-19T09:27:20;7.38;;;2.33;;
12493;SDS011;8260;51.422;6.786;2022-09-19T09:29:51;12.43;;;2.10;;
12493;SDS011;8260;51.422;6.786;2022-09-19T09:32:24;12.30;;;2.30;;
12493;SDS011;8260;51.422;6.786;2022-09-19T09:34:59;8.52;;;2.13;;
12493;SDS011;8260;51.422;6.786;2022-09-19T09:37:31;5.82;;;2.40;;
12493;SDS011;8260;51.422;6.786;2022-09-19T09:40:02;7.72;;;2.03;;
12493;SDS011;8260;51.422;6.786;2022-09-19T09:42:42;11.73;;;2.47;;
12493;SDS011;8260;51.422;6.786;2022-09-19T09:45:15;7.53;;;2.20;;
12493;SDS011;8260;51.422;6.786;2022-09-19T09:47:45;11.60;;;2.63;;
12493;SDS011;8260;51.422;6.786;2022-09-19T09:50:24;8.45;;;2.20;;
12493;SDS011;8260;51.422;6.786;2022-09-19T09:52:56;10.52;;;2.00;;
12493;SDS011;8260;51.422;6.786;2022-09-19T09:55:29;5.10;;;1.67;;
12493;SDS011;8260;51.422;6.786;2022-09-19T09:58:23;11.68;;;2.15;;
12493;SDS011;8260;51.422;6.786;2022-09-19T10:00:55;7.97;;;2.00;;
12493;SDS011;8260;51.422;6.786;2022-09-19T10:03:50;10.13;;;2.00;;
12493;SDS011;8260;51.422;6.786;2022-09-19T10:06:22;7.90;;;2.17;;
12493;SDS011;8260;51.422;6.786;2022-09-19T10:08:53;9.48;;;2.22;;
12493;SDS011;8260;51.422;6.786;2022-09-19T10:11:36;7.20;;;2.38;;
12493;SDS011;8260;51.422;6.786;2022-09-19T10:14:28;7.15;;;2.03;;
12493;SDS011;8260;51.422;6.786;2022-09-19T10:16:57;7.07;;;2.00;;
12493;SDS011;8260;51.422;6.786;2022-09-19T10:19:29;8.52;;;2.03;;
12493;SDS011;8260;51.422;6.786;2022-09-19T10:21:58;8.35;;;2.30;;
12493;SDS011;8260;51.422;6.786;2022-09-19T10:24:46;10.40;;;2.20;;
12493;SDS011;8260;51.422;6.786;2022-09-19T10:27:17;5.43;;;2.15;;
12493;SDS011;8260;51.422;6.786;2022-09-19T10:29:55;8.77;;;2.03;;
12493;SDS011;8260;51.422;6.786;2022-09-19T10:32:25;8.35;;;2.42;;
12493;SDS011;8260;51.422;6.786;2022-09-19T10:34:53;7.53;;;2.05;;
12493;SDS011;8260;51.422;6.786;2022-09-19T10:37:22;10.05;;;2.25;;
12493;SDS011;8260;51.422;6.786;2022-09-19T10:39:58;7.88;;;1.73;;
12493;SDS011;8260;51.422;6.786;2022-09-19T10:42:29;5.38;;;1.80;;
12493;SDS011;8260;51.422;6.786;2022-09-19T10:45:00;12.73;;;2.30;;
12493;SDS011;8260;51.422;6.786;2022-09-19T10:47:30;6.97;;;2.25;;
12493;SDS011;8260;51.422;6.786;2022-09-19T10:50:03;5.93;;;1.70;;
12493;SDS011;8260;51.422;6.786;2022-09-19T10:52:32;7.05;;;2.53;;
12493;SDS011;8260;51.422;6.786;2022-09-19T10:55:19;6.75;;;2.40;;
12493;SDS011;8260;51.422;6.786;2022-09-19T10:57:50;6.60;;;1.85;;
12493;SDS011;8260;51.422;6.786;2022-09-19T11:00:27;6.53;;;2.03;;
12493;SDS011;8260;51.422;6.786;2022-09-19T11:02:57;7.15;;;1.75;;
12493;SDS011;8260;51.422;6.786;2022-09-19T11:05:27;9.63;;;1.70;;
12493;SDS011;8260;51.422;6.786;2022-09-19T11:07:56;6.75;;;1.63;;
12493;SDS011;8260;51.422;6.786;2022-09-19T11:10:29;6.93;;;1.77;;
12493;SDS011;8260;51.422;6.786;2022-09-19T11:13:07;10.25;;;1.67;;
12493;SDS011;8260;51.422;6.786;2022-09-19T11:15:39;3.97;;;1.55;;
12493;SDS011;8260;51.422;6.786;2022-09-19T11:18:10;3.92;;;1.55;;
12493;SDS011;8260;51.422;6.786;2022-09-19T11:20:45;4.75;;;1.60;;
12493;SDS011;8260;51.422;6.786;2022-09-19T11:26:02;3.42;;;1.58;;
12493;SDS011;8260;51.422;6.786;2022-09-19T11:28:33;2.70;;;1.10;;
12493;SDS011;8260;51.422;6.786;2022-09-19T11:31:13;1.85;;;1.10;;
12493;SDS011;8260;51.422;6.786;2022-09-19T11:34:05;3.60;;;1.20;;
12493;SDS011;8260;51.422;6.786;2022-09-19T11:36:59;3.42;;;1.17;;
12493;SDS011;8260;51.422;6.786;2022-09-19T11:42:20;2.78;;;1.00;;
12493;SDS011;8260;51.422;6.786;2022-09-19T11:44:55;3.00;;;1.50;;
12493;SDS011;8260;51.422;6.786;2022-09-19T11:47:37;3.10;;;1.77;;
12493;SDS011;8260;51.422;6.786;2022-09-19T11:50:23;5.22;;;2.05;;
12493;SDS011;8260;51.422;6.786;2022-09-19T11:53:05;2.63;;;1.23;;
12493;SDS011;8260;51.422;6.786;2022-09-19T11:55:39;2.90;;;1.25;;
12493;SDS011;8260;51.422;6.786;2022-09-19T11:58:12;4.25;;;1.67;;
12493;SDS011;8260;51.422;6.786;2022-09-19T12:00:53;4.38;;;2.10;;
12493;SDS011;8260;51.422;6.786;2022-09-19T12:03:33;4.88;;;2.15;;
12493;SDS011;8260;51.422;6.786;2022-09-19T12:06:09;7.60;;;2.97;;
12493;SDS011;8260;51.422;6.786;2022-09-19T12:08:46;3.65;;;1.92;;
12493;SDS011;8260;51.422;6.786;2022-09-19T12:11:20;5.15;;;1.42;;
12493;SDS011;8260;51.422;6.786;2022-09-19T12:13:53;5.22;;;1.73;;
12493;SDS011;8260;51.422;6.786;2022-09-19T12:16:24;4.68;;;1.50;;
12493;SDS011;8260;51.422;6.786;2022-09-19T12:18:56;2.80;;;1.60;;
12493;SDS011;8260;51.422;6.786;2022-09-19T12:21:27;4.50;;;1.80;;
12493;SDS011;8260;51.422;6.786;2022-09-19T12:23:58;7.47;;;1.88;;
12493;SDS011;8260;51.422;6.786;2022-09-19T12:26:47;4.55;;;1.63;;
12493;SDS011;8260;51.422;6.786;2022-09-19T12:29:21;2.72;;;2.05;;
12493;SDS011;8260;51.422;6.786;2022-09-19T12:31:54;5.70;;;3.38;;
12493;SDS011;8260;51.422;6.786;2022-09-19T12:34:28;10.10;;;5.50;;
12493;SDS011;8260;51.422;6.786;2022-09-19T12:36:59;10.82;;;5.53;;
12493;SDS011;8260;51.422;6.786;2022-09-19T12:39:31;9.05;;;5.72;;
12493;SDS011;8260;51.422;6.786;2022-09-19T12:42:03;9.15;;;3.50;;
12493;SDS011;8260;51.422;6.786;2022-09-19T12:44:35;7.03;;;3.13;;
12493;SDS011;8260;51.422;6.786;2022-09-19T12:47:08;13.57;;;3.45;;
12493;SDS011;8260;51.422;6.786;2022-09-19T12:49:49;9.13;;;3.30;;
12493;SDS011;8260;51.422;6.786;2022-09-19T12:52:23;4.50;;;2.13;;
12493;SDS011;8260;51.422;6.786;2022-09-19T12:54:55;5.75;;;1.70;;
12493;SDS011;8260;51.422;6.786;2022-09-19T12:57:31;3.22;;;1.67;;
12493;SDS011;8260;51.422;6.786;2022-09-19T13:00:03;6.13;;;2.13;;
12493;SDS011;8260;51.422;6.786;2022-09-19T13:02:32;7.35;;;2.88;;
12493;SDS011;8260;51.422;6.786;2022-09-19T13:05:05;6.25;;;2.50;;
12493;SDS011;8260;51.422;6.786;2022-09-19T13:07:37;7.05;;;2.72;;
12493;SDS011;8260;51.422;6.786;2022-09-19T13:10:10;8.13;;;2.13;;
12493;SDS011;8260;51.422;6.786;2022-09-19T13:12:42;6.55;;;2.40;;
12493;SDS011;8260;51.422;6.786;2022-09-19T13:15:23;3.80;;;2.03;;
12493;SDS011;8260;51.422;6.786;2022-09-19T13:17:53;4.78;;;2.33;;
12493;SDS011;8260;51.422;6.786;2022-09-19T13:20:43;5.57;;;2.17;;
12493;SDS011;8260;51.422;6.786;2022-09-19T13:23:30;5.40;;;2.83;;
12493;SDS011;8260;51.422;6.786;2022-09-19T13:26:15;7.70;;;2.97;;
12493;SDS011;8260;51.422;6.786;2022-09-19T13:28:46;4.68;;;2.00;;
12493;SDS011;8260;51.422;6.786;2022-09-19T13:31:15;4.53;;;1.88;;
12493;SDS011;8260;51.422;6.786;2022-09-19T13:33:46;4.80;;;1.45;;
12493;SDS011;8260;51.422;6.786;2022-09-19T13:36:35;3.97;;;1.55;;
12493;SDS011;8260;51.422;6.786;2022-09-19T13:39:04;3.50;;;1.65;;
12493;SDS011;8260;51.422;6.786;2022-09-19T13:41:52;3.47;;;1.48;;
12493;SDS011;8260;51.422;6.786;2022-09-19T13:44:23;5.78;;;2.55;;
12493;SDS011;8260;51.422;6.786;2022-09-19T13:46:56;5.28;;;2.10;;
12493;SDS011;8260;51.422;6.786;2022-09-19T13:49:34;4.97;;;2.20;;
12493;SDS011;8260;51.422;6.786;2022-09-19T13:52:09;4.03;;;2.10;;
12493;SDS011;8260;51.422;6.786;2022-09-19T13:57:24;5.95;;;2.05;;
12493;SDS011;8260;51.422;6.786;2022-09-19T13:59:55;2.90;;;1.70;;
12493;SDS011;8260;51.422;6.786;2022-09-19T14:02:26;6.07;;;2.50;;
12493;SDS011;8260;51.422;6.786;2022-09-19T14:04:59;5.28;;;2.40;;
12493;SDS011;8260;51.422;6.786;2022-09-19T14:07:32;4.28;;;2.40;;
12493;SDS011;8260;51.422;6.786;2022-09-19T14:10:24;3.70;;;1.83;;
12493;SDS011;8260;51.422;6.786;2022-09-19T14:12:58;3.95;;;1.42;;
12493;SDS011;8260;51.422;6.786;2022-09-19T14:15:29;3.22;;;1.42;;
12493;SDS011;8260;51.422;6.786;2022-09-19T14:18:01;4.35;;;1.50;;
12493;SDS011;8260;51.422;6.786;2022-09-19T14:23:22;5.57;;;1.80;;
12493;SDS011;8260;51.422;6.786;2022-09-19T14:25:53;4.90;;;1.40;;
12493;SDS011;8260;51.422;6.786;2022-09-19T14:28:27;5.32;;;1.73;;
12493;SDS011;8260;51.422;6.786;2022-09-19T14:31:05;3.92;;;1.33;;
12493;SDS011;8260;51.422;6.786;2022-09-19T14:33:52;3.67;;;1.58;;
12493;SDS011;8260;51.422;6.786;2022-09-19T14:36:32;4.45;;;1.70;;
12493;SDS011;8260;51.422;6.786;2022-09-19T14:39:13;3.13;;;1.63;;
12493;SDS011;8260;51.422;6.786;2022-09-19T14:41:44;4.57;;;1.38;;
12493;SDS011;8260;51.422;6.786;2022-09-19T14:44:49;6.78;;;1.63;;
12493;SDS011;8260;51.422;6.786;2022-09-19T14:47:30;3.08;;;1.50;;
12493;SDS011;8260;51.422;6.786;2022-09-19T14:50:02;2.90;;;1.35;;
12493;SDS011;8260;51.422;6.786;2022-09-19T14:52:34;3.67;;;1.48;;
12493;SDS011;8260;51.422;6.786;2022-09-19T14:55:06;3.83;;;1.50;;
12493;SDS011;8260;51.422;6.786;2022-09-19T14:57:44;2.63;;;1.25;;
12493;SDS011;8260;51.422;6.786;2022-09-19T15:00:19;3.90;;;1.48;;
12493;SDS011;8260;51.422;6.786;2022-09-19T15:02:48;4.93;;;1.52;;
12493;SDS011;8260;51.422;6.786;2022-09-19T15:05:18;4.20;;;1.25;;
12493;SDS011;8260;51.422;6.786;2022-09-19T15:07:49;2.38;;;1.67;;
12493;SDS011;8260;51.422;6.786;2022-09-19T15:10:27;4.82;;;1.90;;
12493;SDS011;8260;51.422;6.786;2022-09-19T15:12:57;6.55;;;1.70;;
12493;SDS011;8260;51.422;6.786;2022-09-19T15:15:36;4.82;;;1.52;;
12493;SDS011;8260;51.422;6.786;2022-09-19T15:18:16;2.13;;;1.20;;
12493;SDS011;8260;51.422;6.786;2022-09-19T15:23:14;4.95;;;1.73;;
12493;SDS011;8260;51.422;6.786;2022-09-19T15:25:45;4.55;;;1.20;;
12493;SDS011;8260;51.422;6.786;2022-09-19T15:28:23;3.92;;;1.05;;
12493;SDS011;8260;51.422;6.786;2022-09-19T15:30:53;4.55;;;1.58;;
12493;SDS011;8260;51.422;6.786;2022-09-19T15:33:25;5.18;;;1.60;;
12493;SDS011;8260;51.422;6.786;2022-09-19T15:35:54;3.28;;;1.05;;
12493;SDS011;8260;51.422;6.786;2022-09-19T15:38:25;2.58;;;0.90;;
12493;SDS011;8260;51.422;6.786;2022-09-19T15:40:58;6.05;;;1.27;;
12493;SDS011;8260;51.422;6.786;2022-09-19T15:43:27;2.92;;;1.50;;